Aérodrome :
LOGIN :

S'inscrire | Disclaimer

   EN    FR    IT 

 










Légende :    VFR   VFR Marginal   IFR   IFR Intensif   IFR Très Intensif
Visi : 
Plafond : 
>= 8 km
>= 3000ft
5 à 8 km
1000 à 3000 ft
1500m à 5 km
500 à 1000 ft
800 à 1500m
200 à 500 ft
< 800m
< 200 ft
Symboles :   Orages  Brouillard  Fortes neiges  Fortes précipitations  Vent > 20 kt
SIGMETs :   Divers  Orages  Givrage  Turbulence  Onde Orograph.  Cendres Volcan.







- Altitude de l'aérodrome : 935 ft


EBFS - Florennes

DERNIER METAR :
  • 180625Z 21008KT 6000 -RA FEW004 BKN022 BKN200 16/15 Q1014 WHT GRN TEMPO YLO

METARs EXPIRÉS :
  • 180621Z 21008KT 9999 -RA FEW004 BKN022 BKN200 16/15 Q1014 WHT GRN TEMPO YLO
  • 180555Z 20005KT 9999 SCT035 BKN200 16/15 Q1014 BLU BLU TEMPO WHT
  • 180523Z 16003KT 8000 FEW001 SCT035 BKN200 15/14 Q1015 BLU BLU TEMPO WHT
  • 180525Z 16004KT 8000 FEW001 SCT035 BKN200 15/14 Q1015 BLU BLU TEMPO WHT
  • 180519Z VRB01KT 4000 FEW001 SCT040 BKN200 15/14 Q1015 GRN GRN BECMG WHT
  • 180511Z VRB01KT 2500 FEW001 SCT040 BKN200 15/14 Q1015 YLO GRN BECMG WHT
  • 180455Z VRB01KT 1000 FG BKN001 BKN200 15/15 Q1014 RED AMB TEMPO RED
  • 180446Z VRB02KT 1000 FG BKN001 BKN200 15/15 Q1014 RED AMB TEMPO RED
  • 180425Z 17006KT 0200 FG SCT001 BKN002 15/15 Q1014 RED RED
  • 180422Z 17007KT 0200 FG SCT001 BKN002 15/15 Q1014 RED RED
  • 180355Z 13004KT 0200 FG BKN001 15/15 Q1014 RED
  • 180325Z VRB02KT 5000 BR FEW006 SCT050 BKN200 15/14 Q1015 WHT

TAF TAF EBFS
Valide du 18 à 07h jusqu'au 18 à 16h UTC


180541Z 1807/1816 19005KT 9999 FEW015 BKN030
BECMG 1808/1810 6000 -RA FEW010 BKN015
TEMPO 1810/1816 20010KT 5000 -RA SCT010 BKN015
TEMPO 1811/1814 4000 RA SCT005 BKN007
Pas de NOTAMs connus pour ce terrain.



MET'MAP, la Météo Aéronautique d'un coup d'oeil ! - Copyright ORBIFLY Décembre 2007 - Disclaimer

ORBIFLY MET'MAP TEAM :

Programmation & Développement : Alexandra Zaïnal
Conception & Développement : Baudouin d'Aumeries
Co-Programmation & Développement : Marc-Olivier Méhu
Soutien technique & logistique : Manuel Goepfert

Contact : metmap@orbifly.com




SOURCES & CREDITS :

   NOAA